Time;durP1;ratioP1;P1;durP2;ratioP2;P2;SDS_P1;SDS_P2;PMS_P1;PMS_P2;Temp;Humidity;BMP_temperature;BMP_pressure;BME280_temperature;BME280_humidity;BME280_pressure;Samples;Min_cycle;Max_cycle;Signal;HPM_P1;HPM_P2
2021/05/14 00:00:25;;;;;;;0.20;0.20;;;8.70;99.90;;;;;;5112784;28;20084;-72
2021/05/14 00:02:51;;;;;;;0.20;0.20;;;8.60;99.90;;;;;;5094594;28;20023;-72
2021/05/14 00:05:18;;;;;;;3.05;2.35;;;8.60;99.90;;;;;;5112614;28;20485;-72
2021/05/14 00:07:43;;;;;;;0.90;0.90;;;8.60;99.90;;;;;;5112589;28;20020;-72
2021/05/14 00:10:10;;;;;;;0.20;0.20;;;8.70;99.90;;;;;;5112680;28;20528;-72
2021/05/14 00:12:36;;;;;;;0.20;0.20;;;8.70;99.90;;;;;;5112702;28;20019;-72
2021/05/14 00:15:02;;;;;;;0.20;0.20;;;8.80;99.90;;;;;;5094372;28;20027;-72
2021/05/14 00:17:28;;;;;;;1.88;0.98;;;8.80;99.90;;;;;;5112420;28;20551;-72
2021/05/14 00:19:53;;;;;;;1.35;1.10;;;8.60;99.90;;;;;;5112528;28;20035;-72
2021/05/14 00:22:19;;;;;;;1.65;0.82;;;8.60;99.90;;;;;;5112457;28;20152;-72
2021/05/14 00:24:46;;;;;;;1.20;0.85;;;8.70;99.90;;;;;;5112533;28;20497;-72
2021/05/14 00:27:12;;;;;;;1.60;1.02;;;8.60;99.90;;;;;;5112205;28;20032;-73
2021/05/14 00:29:38;;;;;;;0.75;0.63;;;8.70;99.90;;;;;;5112283;28;20490;-73
2021/05/14 00:32:04;;;;;;;0.30;0.30;;;8.70;99.90;;;;;;5112372;28;20027;-73
2021/05/14 00:34:29;;;;;;;0.40;0.40;;;8.70;99.90;;;;;;5112389;28;20024;-73
2021/05/14 00:36:55;;;;;;;0.55;0.47;;;8.70;99.90;;;;;;5112303;28;20502;-73
2021/05/14 00:39:21;;;;;;;3.45;1.10;;;8.70;99.90;;;;;;5112313;28;20030;-73
2021/05/14 00:41:46;;;;;;;1.20;1.10;;;8.70;99.90;;;;;;5112183;28;20024;-73
2021/05/14 00:44:31;;;;;;;2.00;1.00;;;8.70;99.90;;;;;;5112077;28;20118;-72
2021/05/14 00:46:58;;;;;;;1.60;1.05;;;8.70;99.90;;;;;;5094028;28;20031;-72
2021/05/14 00:49:24;;;;;;;0.77;0.77;;;8.70;99.90;;;;;;5112196;28;20042;-72
2021/05/14 00:51:51;;;;;;;1.00;0.75;;;8.70;99.90;;;;;;5094140;28;20185;-72
2021/05/14 00:54:18;;;;;;;1.60;1.13;;;8.70;99.90;;;;;;5112004;28;20053;-72
2021/05/14 00:56:44;;;;;;;5.15;1.60;;;8.70;99.90;;;;;;5093702;28;20034;-72
2021/05/14 00:59:10;;;;;;;1.50;1.15;;;8.70;99.90;;;;;;5112136;28;20020;-73
2021/05/14 01:01:36;;;;;;;2.08;0.93;;;8.80;99.90;;;;;;5112098;28;20027;-72
2021/05/14 01:04:02;;;;;;;1.20;0.65;;;9.00;99.90;;;;;;5112120;28;20028;-73
2021/05/14 01:06:27;;;;;;;3.53;0.90;;;9.10;99.90;;;;;;5093537;28;20073;-73
2021/05/14 01:08:57;;;;;;;2.72;1.15;;;9.20;99.90;;;;;;5112007;28;20425;-73
2021/05/14 01:11:23;;;;;;;1.40;1.02;;;9.50;99.90;;;;;;5093922;28;20031;-73
2021/05/14 01:13:49;;;;;;;2.97;1.30;;;9.60;99.90;;;;;;5076940;28;20068;-73
2021/05/14 01:16:15;;;;;;;3.83;0.85;;;9.70;99.90;;;;;;5111856;28;20103;-73
2021/05/14 01:18:40;;;;;;;5.47;0.93;;;9.70;99.90;;;;;;5112046;28;20386;-73
2021/05/14 01:21:06;;;;;;;0.98;0.90;;;9.70;99.90;;;;;;5111860;28;20023;-73
2021/05/14 01:23:32;;;;;;;2.20;0.63;;;9.60;99.90;;;;;;5111920;28;20026;-73
2021/05/14 01:25:57;;;;;;;0.43;0.22;;;9.60;99.90;;;;;;5111701;28;20107;-73
2021/05/14 01:28:23;;;;;;;1.13;1.00;;;9.60;99.90;;;;;;5111755;28;20039;-73
2021/05/14 01:30:49;;;;;;;6.45;1.60;;;9.80;99.90;;;;;;5111865;28;20047;-73
2021/05/14 01:33:15;;;;;;;2.53;1.23;;;9.90;99.90;;;;;;5111798;28;20046;-73
2021/05/14 01:35:41;;;;;;;2.85;1.20;;;9.90;99.90;;;;;;5111556;28;20026;-73
2021/05/14 01:38:07;;;;;;;1.90;1.10;;;9.80;99.90;;;;;;5112040;28;20034;-73
2021/05/14 01:40:36;;;;;;;0.90;0.90;;;9.80;99.90;;;;;;5111740;28;20390;-73
2021/05/14 01:43:03;;;;;;;0.28;0.28;;;9.60;99.90;;;;;;5113854;28;20094;-73
2021/05/14 01:45:29;;;;;;;1.75;0.98;;;9.40;99.90;;;;;;5115320;28;20023;-73
2021/05/14 01:47:55;;;;;;;1.40;0.95;;;9.30;99.90;;;;;;5097233;28;20020;-73
2021/05/14 01:50:21;;;;;;;5.30;1.80;;;9.30;99.90;;;;;;5115207;28;20035;-73
2021/05/14 01:52:47;;;;;;;1.55;1.17;;;9.50;99.90;;;;;;5097119;28;20479;-73
2021/05/14 01:55:13;;;;;;;6.72;1.38;;;9.70;99.90;;;;;;5115164;28;20024;-73
2021/05/14 01:57:39;;;;;;;3.72;1.13;;;9.70;99.90;;;;;;5096806;28;20502;-73
2021/05/14 02:00:07;;;;;;;1.75;0.98;;;9.80;99.90;;;;;;5115163;28;20060;-73
2021/05/14 02:02:33;;;;;;;1.00;0.90;;;9.80;99.90;;;;;;5096870;28;20054;-73
2021/05/14 02:04:59;;;;;;;2.28;1.25;;;9.80;99.90;;;;;;5079893;28;20027;-73
2021/05/14 02:07:25;;;;;;;2.03;0.73;;;9.80;99.90;;;;;;5115008;28;20024;-73
2021/05/14 02:09:52;;;;;;;1.10;1.00;;;9.70;99.90;;;;;;5114924;28;20024;-73
2021/05/14 02:12:18;;;;;;;2.97;1.40;;;9.60;99.90;;;;;;5114856;28;20486;-73
2021/05/14 02:14:44;;;;;;;6.88;1.30;;;9.60;99.90;;;;;;5114846;28;20033;-73
2021/05/14 02:17:10;;;;;;;1.10;1.00;;;9.60;99.90;;;;;;5096253;28;20036;-73
2021/05/14 02:19:36;;;;;;;1.30;1.20;;;9.50;99.90;;;;;;5114767;28;20024;-73
2021/05/14 02:22:05;;;;;;;4.53;1.50;;;9.40;99.90;;;;;;5114864;28;20027;-73
2021/05/14 02:24:31;;;;;;;1.63;1.48;;;9.30;99.90;;;;;;5114627;28;20028;-73
2021/05/14 02:26:57;;;;;;;2.28;1.15;;;9.30;99.90;;;;;;5114354;28;20024;-73
2021/05/14 02:29:23;;;;;;;1.88;1.30;;;9.50;99.90;;;;;;5096132;28;20030;-73
2021/05/14 02:31:49;;;;;;;1.10;1.00;;;9.60;99.90;;;;;;5096282;28;20020;-73
2021/05/14 02:34:15;;;;;;;0.10;0.10;;;9.70;99.90;;;;;;5096325;28;20020;-73
2021/05/14 02:36:41;;;;;;;1.70;1.13;;;9.80;99.90;;;;;;5114327;28;20479;-73
2021/05/14 02:39:08;;;;;;;2.08;1.10;;;9.80;99.90;;;;;;5114384;28;20115;-73
2021/05/14 02:41:35;;;;;;;1.75;1.20;;;9.60;99.90;;;;;;5114274;28;20031;-73
2021/05/14 02:44:03;;;;;;;3.97;1.02;;;9.40;99.90;;;;;;5114166;28;20053;-73
2021/05/14 02:46:29;;;;;;;1.75;1.20;;;9.40;99.90;;;;;;5095796;28;20024;-73
2021/05/14 02:48:55;;;;;;;2.78;1.73;;;9.30;99.90;;;;;;5096031;28;20037;-73
2021/05/14 02:51:20;;;;;;;1.67;1.15;;;9.20;99.90;;;;;;5095709;28;20023;-72
2021/05/14 02:53:46;;;;;;;5.95;1.50;;;9.00;99.90;;;;;;5113413;28;20024;-72
2021/05/14 02:56:12;;;;;;;1.38;1.27;;;8.90;99.90;;;;;;5113714;28;20100;-72
2021/05/14 02:58:37;;;;;;;1.02;1.00;;;8.80;99.90;;;;;;5113906;28;20099;-72
2021/05/14 03:01:03;;;;;;;1.10;1.00;;;8.80;99.90;;;;;;5114264;28;20371;-72
2021/05/14 03:03:29;;;;;;;5.85;1.10;;;8.70;99.90;;;;;;5113932;28;20103;-72
2021/05/14 03:05:55;;;;;;;1.48;1.10;;;8.80;99.90;;;;;;5113661;28;20024;-72
2021/05/14 03:08:21;;;;;;;2.28;1.20;;;8.70;99.90;;;;;;5113796;28;20020;-73
2021/05/14 03:10:46;;;;;;;5.15;1.30;;;8.50;99.90;;;;;;5113668;28;20024;-72
2021/05/14 03:13:12;;;;;;;3.28;1.13;;;8.30;99.90;;;;;;5095381;28;20035;-72
2021/05/14 03:15:38;;;;;;;5.88;1.25;;;8.30;99.90;;;;;;5113417;28;20518;-72
2021/05/14 03:18:04;;;;;;;1.33;0.98;;;8.30;99.90;;;;;;5113633;28;20110;-72
2021/05/14 03:20:30;;;;;;;4.50;1.30;;;8.20;99.90;;;;;;5113662;28;20058;-72
2021/05/14 03:22:55;;;;;;;2.33;1.20;;;8.40;99.90;;;;;;5113512;28;20048;-72
2021/05/14 03:25:21;;;;;;;1.85;1.10;;;8.20;99.90;;;;;;5113169;28;20087;-72
2021/05/14 03:27:47;;;;;;;2.15;1.10;;;8.20;99.90;;;;;;5100958;22;20068;-74
2021/05/14 03:30:13;;;;;;;1.10;1.05;;;8.10;99.90;;;;;;5071678;28;20028;-76
2021/05/14 03:32:39;;;;;;;1.33;1.23;;;8.10;99.90;;;;;;5071583;28;20074;-76
2021/05/14 03:35:06;;;;;;;2.33;1.02;;;8.00;99.90;;;;;;5072791;28;20020;-75
2021/05/14 03:37:32;;;;;;;1.20;1.10;;;7.90;99.90;;;;;;5072515;28;20032;-75
2021/05/14 03:40:03;;;;;;;3.42;1.20;;;7.80;99.90;;;;;;5072488;28;20024;-75
2021/05/14 03:42:29;;;;;;;2.13;1.30;;;7.70;99.90;;;;;;5071376;28;20039;-76
2021/05/14 03:44:56;;;;;;;1.13;1.00;;;7.70;99.90;;;;;;5072485;28;20028;-76
2021/05/14 03:47:23;;;;;;;1.98;0.95;;;7.90;99.90;;;;;;5071025;28;20017;-75
2021/05/14 03:49:48;;;;;;;3.55;1.30;;;7.90;99.90;;;;;;5072455;28;20020;-76
2021/05/14 03:52:14;;;;;;;2.22;1.33;;;7.90;99.90;;;;;;5071102;28;20116;-76
2021/05/14 03:54:41;;;;;;;2.35;1.40;;;8.00;99.90;;;;;;5072187;28;20391;-76
2021/05/14 03:57:07;;;;;;;4.35;1.35;;;7.90;99.90;;;;;;5072217;28;20056;-76
2021/05/14 03:59:33;;;;;;;2.53;1.35;;;7.90;99.90;;;;;;5072716;28;20044;-76
2021/05/14 04:02:00;;;;;;;1.70;1.30;;;7.90;99.90;;;;;;5071020;28;20463;-76
2021/05/14 04:04:26;;;;;;;4.85;1.15;;;7.80;99.90;;;;;;5072526;28;20025;-76
2021/05/14 04:06:52;;;;;;;1.67;1.08;;;7.60;99.90;;;;;;5070597;28;20077;-75
2021/05/14 04:09:26;;;;;;;3.10;1.40;;;7.60;99.90;;;;;;5070989;28;20020;-75
2021/05/14 04:12:05;;;;;;;5.97;1.42;;;7.80;99.90;;;;;;5070996;28;20488;-75
2021/05/14 04:14:32;;;;;;;2.42;1.20;;;7.90;99.90;;;;;;5072155;28;20032;-76
2021/05/14 04:17:03;;;;;;;2.05;1.42;;;7.90;99.90;;;;;;5071795;28;20078;-76
2021/05/14 04:19:29;;;;;;;2.63;1.80;;;7.90;99.90;;;;;;5072207;28;20036;-75
2021/05/14 04:21:56;;;;;;;5.10;1.70;;;7.80;99.90;;;;;;5072108;28;20060;-76
2021/05/14 04:24:23;;;;;;;1.73;1.50;;;7.70;99.90;;;;;;5071993;28;20031;-76
2021/05/14 04:26:51;;;;;;;4.05;1.52;;;7.60;99.90;;;;;;5070624;28;20531;-76
2021/05/14 04:29:17;;;;;;;2.75;1.52;;;7.50;99.90;;;;;;5089029;28;20401;-76
2021/05/14 04:31:45;;;;;;;1.38;1.08;;;7.40;99.90;;;;;;5073912;28;20680;-75
2021/05/14 04:34:11;;;;;;;2.33;1.60;;;7.50;99.90;;;;;;5092032;28;20452;-75
2021/05/14 04:36:38;;;;;;;3.75;1.77;;;7.50;99.90;;;;;;5091923;28;20020;-75
2021/05/14 04:39:06;;;;;;;1.20;1.10;;;7.70;99.90;;;;;;5090663;28;20565;-76
2021/05/14 04:41:32;;;;;;;1.27;1.17;;;7.70;99.90;;;;;;5092099;28;20024;-75
2021/05/14 04:43:58;;;;;;;6.07;1.45;;;7.70;99.90;;;;;;5091762;28;20027;-75
2021/05/14 04:46:24;;;;;;;5.50;1.70;;;7.70;99.90;;;;;;5091988;28;20515;-76
2021/05/14 04:48:49;;;;;;;2.55;1.25;;;7.80;99.90;;;;;;5074003;28;20066;-75
2021/05/14 04:51:15;;;;;;;4.05;1.58;;;7.90;99.90;;;;;;5091958;28;20489;-76
2021/05/14 04:53:42;;;;;;;1.50;1.25;;;8.00;99.90;;;;;;5092032;28;20030;-75
2021/05/14 04:56:09;;;;;;;6.60;1.85;;;7.90;99.90;;;;;;5091580;28;20020;-76
2021/05/14 04:58:35;;;;;;;3.03;1.67;;;7.80;99.90;;;;;;5091728;28;20025;-75
2021/05/14 05:01:01;;;;;;;4.40;1.40;;;7.80;99.90;;;;;;5073393;28;20383;-75
2021/05/14 05:03:27;;;;;;;2.45;1.83;;;7.90;99.90;;;;;;5065425;28;20076;-76
2021/05/14 05:05:52;;;;;;;5.15;2.10;;;8.00;99.90;;;;;;5106328;28;20099;-75
2021/05/14 05:08:18;;;;;;;3.83;1.70;;;8.10;99.90;;;;;;5073676;28;20047;-75
2021/05/14 05:10:44;;;;;;;3.45;1.92;;;8.20;99.90;;;;;;5102273;28;20438;-75
2021/05/14 05:13:10;;;;;;;4.75;1.42;;;8.40;99.90;;;;;;5111977;28;20379;-75
2021/05/14 05:15:35;;;;;;;2.97;1.50;;;8.60;99.90;;;;;;5093832;28;20038;-75
2021/05/14 05:18:01;;;;;;;5.05;1.13;;;8.70;99.90;;;;;;5114502;28;20020;-75
2021/05/14 05:20:27;;;;;;;5.63;1.00;;;8.70;99.90;;;;;;5097678;28;20106;-75
2021/05/14 05:22:53;;;;;;;1.10;1.00;;;8.70;99.90;;;;;;5097697;28;20398;-75
2021/05/14 05:25:18;;;;;;;3.08;1.25;;;8.80;99.90;;;;;;5097835;28;20360;-74
2021/05/14 05:27:44;;;;;;;2.10;0.88;;;9.00;99.90;;;;;;5115862;28;20088;-76
2021/05/14 05:30:10;;;;;;;5.72;1.20;;;9.10;99.90;;;;;;5116296;28;20024;-75
2021/05/14 05:32:36;;;;;;;1.45;0.90;;;9.20;99.90;;;;;;5097936;28;20393;-75
2021/05/14 05:35:03;;;;;;;0.20;0.20;;;9.40;99.90;;;;;;5116855;28;20102;-75
2021/05/14 05:37:28;;;;;;;4.47;1.05;;;9.50;99.90;;;;;;5116213;28;20039;-74
2021/05/14 05:39:54;;;;;;;7.35;1.17;;;9.50;99.90;;;;;;5116518;28;20027;-74
2021/05/14 05:42:20;;;;;;;6.30;1.30;;;9.60;99.90;;;;;;5098070;28;20020;-74
2021/05/14 05:44:45;;;;;;;3.50;1.85;;;9.70;99.90;;;;;;5115753;28;20019;-76
2021/05/14 05:47:11;;;;;;;2.42;0.90;;;9.80;99.90;;;;;;5115834;28;20447;-74
2021/05/14 05:49:37;;;;;;;2.50;0.85;;;9.80;99.90;;;;;;5116187;28;20016;-75
2021/05/14 05:52:03;;;;;;;1.35;0.93;;;9.80;99.90;;;;;;5115954;28;20081;-76
2021/05/14 05:54:29;;;;;;;3.10;0.85;;;9.90;99.90;;;;;;5097523;28;20020;-74
2021/05/14 05:56:57;;;;;;;0.22;0.22;;;10.00;99.90;;;;;;5115393;28;20035;-74
2021/05/14 05:59:24;;;;;;;2.78;0.90;;;10.30;99.90;;;;;;5114964;28;20023;-75
2021/05/14 06:01:50;;;;;;;2.67;0.73;;;10.30;99.90;;;;;;5115407;28;20023;-74
2021/05/14 06:04:16;;;;;;;0.65;0.65;;;10.20;97.10;;;;;;5115365;28;20031;-74
2021/05/14 06:06:41;;;;;;;5.68;2.50;;;10.20;98.50;;;;;;5115198;28;20016;-74
2021/05/14 06:09:07;;;;;;;6.20;0.63;;;10.30;98.00;;;;;;5096936;28;20395;-74
2021/05/14 06:11:33;;;;;;;0.10;0.10;;;10.40;96.90;;;;;;5097002;28;20387;-74
2021/05/14 06:13:59;;;;;;;0.10;0.10;;;10.50;97.30;;;;;;5115115;28;20081;-74
2021/05/14 06:16:26;;;;;;;0.30;0.30;;;10.70;95.20;;;;;;5115104;28;20027;-72
2021/05/14 06:19:04;;;;;;;0.25;0.25;;;10.60;94.20;;;;;;5115078;28;20076;-74
2021/05/14 06:21:31;;;;;;;3.03;0.70;;;10.60;93.00;;;;;;5114923;28;20012;-73
2021/05/14 06:23:57;;;;;;;1.85;0.40;;;10.90;93.30;;;;;;5114842;28;20467;-74
2021/05/14 06:26:22;;;;;;;4.30;0.70;;;10.90;92.00;;;;;;5114951;28;20026;-74
2021/05/14 06:28:48;;;;;;;0.98;0.55;;;10.90;92.60;;;;;;5114625;28;20038;-73
2021/05/14 06:31:14;;;;;;;2.22;0.52;;;11.00;91.00;;;;;;5114966;28;20023;-74
2021/05/14 06:33:40;;;;;;;3.30;0.75;;;11.20;91.70;;;;;;5114788;28;20019;-71
2021/05/14 06:36:05;;;;;;;1.33;0.80;;;11.30;90.80;;;;;;5114924;28;20028;-75
2021/05/14 06:38:31;;;;;;;1.45;1.13;;;11.30;88.70;;;;;;5096299;28;20038;-75
2021/05/14 06:40:57;;;;;;;0.82;0.77;;;11.60;90.30;;;;;;5114615;28;20038;-73
2021/05/14 06:43:23;;;;;;;1.00;0.95;;;11.40;86.20;;;;;;5096247;28;20020;-73
2021/05/14 06:45:49;;;;;;;2.22;0.90;;;11.40;88.10;;;;;;5114512;28;20062;-73
2021/05/14 06:48:14;;;;;;;2.42;0.55;;;11.40;89.40;;;;;;5114584;28;20086;-73
2021/05/14 06:50:42;;;;;;;4.07;0.73;;;11.60;89.00;;;;;;5095983;28;20027;-73
2021/05/14 06:53:09;;;;;;;3.13;0.70;;;11.80;89.10;;;;;;5096452;28;20436;-73
2021/05/14 06:55:36;;;;;;;1.52;0.47;;;11.90;88.40;;;;;;5095931;28;20114;-72
2021/05/14 06:58:03;;;;;;;4.25;0.60;;;12.00;87.70;;;;;;5114342;28;20410;-73
2021/05/14 07:00:30;;;;;;;2.30;0.80;;;12.00;86.80;;;;;;5096101;28;20466;-73
2021/05/14 07:02:56;;;;;;;2.60;0.98;;;12.10;85.50;;;;;;5114221;28;20020;-74
2021/05/14 07:05:22;;;;;;;1.35;0.65;;;12.40;87.70;;;;;;5113971;28;20020;-73
2021/05/14 07:07:48;;;;;;;3.70;1.27;;;12.60;86.80;;;;;;5113874;28;20012;-71
2021/05/14 07:10:13;;;;;;;2.28;0.80;;;12.70;84.50;;;;;;5114109;28;20020;-75
2021/05/14 07:12:39;;;;;;;2.35;1.63;;;12.90;84.10;;;;;;5113971;28;20024;-72
2021/05/14 07:15:08;;;;;;;6.65;2.30;;;12.80;82.20;;;;;;5113888;28;20027;-72
2021/05/14 07:17:34;;;;;;;0.60;0.60;;;12.80;82.10;;;;;;5114261;28;20038;-76
2021/05/14 07:20:00;;;;;;;1.50;0.70;;;12.90;81.20;;;;;;5114396;28;20108;-72
2021/05/14 07:22:26;;;;;;;1.95;1.15;;;12.90;80.50;;;;;;5113940;28;20094;-73
2021/05/14 07:24:52;;;;;;;5.80;0.90;;;12.70;78.50;;;;;;5113705;28;20024;-73
2021/05/14 07:27:18;;;;;;;3.08;0.85;;;12.70;78.70;;;;;;5113587;28;20020;-73
2021/05/14 07:29:44;;;;;;;3.58;0.90;;;12.80;79.60;;;;;;5095480;28;20041;-73
2021/05/14 07:32:11;;;;;;;1.08;0.52;;;12.90;79.60;;;;;;5095382;28;20019;-73
2021/05/14 07:34:37;;;;;;;1.23;0.47;;;13.00;77.90;;;;;;5095137;28;20023;-74
2021/05/14 07:37:03;;;;;;;4.85;0.82;;;13.00;76.10;;;;;;5113423;28;20122;-74
2021/05/14 07:39:29;;;;;;;4.03;0.50;;;13.30;76.60;;;;;;5112984;28;20023;-74
2021/05/14 07:41:55;;;;;;;4.95;0.70;;;13.60;72.70;;;;;;5113304;28;20431;-74
2021/05/14 07:44:22;;;;;;;9.18;0.75;;;13.60;73.70;;;;;;5113478;28;20027;-74
2021/05/14 07:46:49;;;;;;;1.10;0.80;;;13.70;76.50;;;;;;5113185;28;20059;-74
2021/05/14 07:49:15;;;;;;;0.50;0.50;;;14.00;73.40;;;;;;5095111;28;20027;-74
2021/05/14 07:51:41;;;;;;;1.60;0.73;;;13.90;71.00;;;;;;5113323;28;20035;-74
2021/05/14 07:54:06;;;;;;;5.28;0.85;;;13.50;70.40;;;;;;5094857;28;20109;-74
2021/05/14 07:56:33;;;;;;;5.38;0.60;;;13.80;72.60;;;;;;5113088;28;20451;-74
2021/05/14 07:58:58;;;;;;;1.38;0.60;;;14.20;72.40;;;;;;5094820;28;20487;-74
2021/05/14 08:01:24;;;;;;;4.32;1.02;;;14.50;71.80;;;;;;5113061;28;20035;-74
2021/05/14 08:03:50;;;;;;;3.95;1.17;;;14.40;72.10;;;;;;5112796;28;20077;-74
2021/05/14 08:06:19;;;;;;;6.50;1.88;;;14.30;70.20;;;;;;5112796;28;20053;-74
2021/05/14 08:08:45;;;;;;;3.83;0.70;;;14.40;69.50;;;;;;5094939;28;20513;-74
2021/05/14 08:11:11;;;;;;;6.75;1.05;;;14.30;70.00;;;;;;5113019;28;20015;-74
2021/05/14 08:13:37;;;;;;;5.20;1.83;;;14.30;72.00;;;;;;5112835;28;20022;-74
2021/05/14 08:16:03;;;;;;;5.43;0.80;;;14.50;69.70;;;;;;5112768;28;20024;-74
2021/05/14 08:18:29;;;;;;;12.73;1.10;;;14.40;69.30;;;;;;5094395;28;20027;-74
2021/05/14 08:20:54;;;;;;;2.30;0.80;;;13.90;71.30;;;;;;5112435;28;20024;-74
2021/05/14 08:23:21;;;;;;;2.88;0.82;;;13.70;74.40;;;;;;5094539;28;20019;-74
2021/05/14 08:25:48;;;;;;;4.32;1.70;;;13.70;75.00;;;;;;5112295;28;20016;-74
2021/05/14 08:28:14;;;;;;;2.95;0.82;;;14.10;75.10;;;;;;5112399;28;20479;-74
2021/05/14 08:30:42;;;;;;;4.75;1.15;;;14.50;73.40;;;;;;5112559;28;20098;-74
2021/05/14 08:33:07;;;;;;;0.77;0.45;;;14.70;70.80;;;;;;5112439;28;20034;-74
2021/05/14 08:35:35;;;;;;;1.25;0.63;;;15.10;66.90;;;;;;5094187;28;20475;-74
2021/05/14 08:38:02;;;;;;;4.32;0.95;;;14.80;67.30;;;;;;5112629;28;20023;-74
2021/05/14 08:40:27;;;;;;;3.47;0.90;;;15.00;68.40;;;;;;5112355;28;20027;-74
2021/05/14 08:42:53;;;;;;;2.17;0.68;;;15.50;67.90;;;;;;5093985;28;20387;-74
2021/05/14 08:45:20;;;;;;;6.97;0.90;;;15.50;67.10;;;;;;5112186;28;20024;-74
2021/05/14 08:47:47;;;;;;;2.15;1.10;;;15.20;66.40;;;;;;5112301;28;20020;-74
2021/05/14 08:50:13;;;;;;;6.28;0.73;;;15.20;65.50;;;;;;5094275;28;20030;-74
2021/05/14 08:52:42;;;;;;;5.70;1.10;;;15.20;66.70;;;;;;5114201;28;20023;-74
2021/05/14 08:55:09;;;;;;;3.33;0.80;;;15.10;66.50;;;;;;5116745;28;20055;-74
2021/05/14 08:57:36;;;;;;;3.15;0.75;;;15.20;64.10;;;;;;5116433;28;20092;-74
2021/05/14 09:00:03;;;;;;;4.03;0.57;;;15.70;64.10;;;;;;5117019;28;20023;-74
2021/05/14 09:02:31;;;;;;;0.82;0.40;;;15.90;62.30;;;;;;5116563;28;20019;-74
2021/05/14 09:04:57;;;;;;;1.48;0.70;;;15.60;62.50;;;;;;5116106;28;20015;-74
2021/05/14 09:07:23;;;;;;;1.98;0.60;;;15.60;62.90;;;;;;5116327;28;20561;-74
2021/05/14 09:10:09;;;;;;;0.68;0.50;;;16.00;60.80;;;;;;5116499;28;20020;-74
2021/05/14 09:12:40;;;;;;;1.02;0.65;;;16.30;59.70;;;;;;5098180;28;20026;-74
2021/05/14 09:15:25;;;;;;;3.80;0.70;;;15.80;61.90;;;;;;5116405;28;20068;-74
2021/05/14 09:18:11;;;;;;;1.80;1.10;;;15.00;64.00;;;;;;5116044;28;20527;-74
2021/05/14 09:20:47;;;;;;;1.15;0.57;;;14.60;65.00;;;;;;5116126;28;20031;-74
2021/05/14 09:23:15;;;;;;;3.83;0.77;;;14.80;67.40;;;;;;5097969;28;20027;-74
2021/05/14 09:26:05;;;;;;;1.58;0.70;;;15.40;65.30;;;;;;5097694;28;20509;-74
2021/05/14 09:28:43;;;;;;;1.23;0.60;;;16.30;61.40;;;;;;5105936;22;20495;-75
2021/05/14 09:31:13;;;;;;;7.07;4.72;;;17.30;59.10;;;;;;5077654;28;20468;-76
2021/05/14 09:34:00;;;;;;;0.95;0.73;;;17.30;55.90;;;;;;5095554;28;20024;-76
2021/05/14 09:36:31;;;;;;;0.82;0.35;;;16.90;56.30;;;;;;5095153;28;20043;-76
2021/05/14 09:39:04;;;;;;;2.17;0.60;;;16.50;57.30;;;;;;5095019;28;20024;-76
2021/05/14 09:41:42;;;;;;;4.18;0.70;;;16.90;55.50;;;;;;5095373;28;20475;-76
2021/05/14 09:44:16;;;;;;;2.78;0.50;;;17.40;54.40;;;;;;5095669;28;20030;-76
2021/05/14 09:46:44;;;;;;;2.45;0.73;;;17.30;54.40;;;;;;5077124;28;20020;-76
2021/05/14 09:49:17;;;;;;;3.63;0.90;;;16.90;56.60;;;;;;5095197;28;20023;-76
2021/05/14 09:51:51;;;;;;;2.42;0.90;;;16.70;57.40;;;;;;5076912;28;20468;-76
2021/05/14 09:54:21;;;;;;;3.05;0.60;;;16.50;57.50;;;;;;5076742;28;20044;-76
2021/05/14 09:59:59;;;;;;;3.53;0.90;;;16.00;59.20;;;;;;5076876;28;20055;-76
2021/05/14 10:02:29;;;;;;;4.63;0.77;;;15.70;59.70;;;;;;5093421;28;20035;-76
2021/05/14 10:04:56;;;;;;;0.50;0.50;;;15.60;58.30;;;;;;5076275;28;20032;-76
2021/05/14 10:07:26;;;;;;;1.30;0.80;;;15.50;59.00;;;;;;5094525;28;20020;-76
2021/05/14 10:09:55;;;;;;;3.70;0.50;;;15.60;60.00;;;;;;5076953;28;20024;-76
2021/05/14 10:12:22;;;;;;;2.75;0.73;;;15.30;60.20;;;;;;5076855;28;20020;-76
2021/05/14 10:14:48;;;;;;;1.83;0.60;;;15.60;61.00;;;;;;5076440;28;20028;-76
2021/05/14 10:17:14;;;;;;;1.05;0.50;;;16.50;57.10;;;;;;5076399;28;20534;-76
2021/05/14 10:19:42;;;;;;;1.00;0.70;;;17.30;55.60;;;;;;5094516;28;20028;-76
2021/05/14 10:22:09;;;;;;;0.52;0.50;;;18.20;53.00;;;;;;5076189;28;20043;-76
2021/05/14 10:24:38;;;;;;;1.25;0.60;;;18.10;51.80;;;;;;5094376;28;20034;-76
2021/05/14 10:27:18;;;;;;;4.95;0.93;;;17.60;53.50;;;;;;5059225;28;20510;-76
2021/05/14 10:29:47;;;;;;;2.92;0.70;;;17.10;53.70;;;;;;5076222;28;20032;-75
2021/05/14 10:32:13;;;;;;;6.68;1.23;;;16.80;55.40;;;;;;5094118;28;20073;-76
2021/05/14 10:34:39;;;;;;;1.45;0.70;;;16.70;56.10;;;;;;5059411;28;20441;-76
2021/05/14 10:37:05;;;;;;;11.57;0.90;;;16.30;56.30;;;;;;5094135;28;20067;-76
2021/05/14 10:39:37;;;;;;;1.83;0.68;;;16.30;58.50;;;;;;5076116;28;20403;-76
2021/05/14 10:42:19;;;;;;;2.17;0.90;;;16.60;57.30;;;;;;5093993;28;20081;-76
2021/05/14 10:44:50;;;;;;;2.53;0.70;;;16.70;56.30;;;;;;5094030;28;20051;-76
2021/05/14 10:47:25;;;;;;;7.93;1.10;;;17.20;56.30;;;;;;5075792;28;20024;-76
2021/05/14 10:49:56;;;;;;;1.83;0.47;;;18.00;53.90;;;;;;5093958;28;20020;-73
2021/05/14 10:52:21;;;;;;;2.35;0.70;;;17.90;53.80;;;;;;5075791;28;20024;-73
2021/05/14 10:54:48;;;;;;;3.63;0.77;;;17.60;54.10;;;;;;5075878;28;20437;-73
2021/05/14 10:57:34;;;;;;;2.53;0.82;;;17.30;54.90;;;;;;5093547;28;20081;-73
2021/05/14 11:00:23;;;;;;;6.45;1.30;;;17.10;56.20;;;;;;5093504;28;20042;-73
2021/05/14 11:03:11;;;;;;;1.48;0.75;;;16.80;55.70;;;;;;5075319;28;20452;-75
2021/05/14 11:05:41;;;;;;;0.73;0.43;;;16.70;57.20;;;;;;5093423;28;20020;-76
2021/05/14 11:08:11;;;;;;;2.60;0.52;;;16.50;56.70;;;;;;5093584;28;20468;-76
2021/05/14 11:10:38;;;;;;;4.82;0.75;;;16.30;56.40;;;;;;5075377;28;20081;-76
2021/05/14 11:13:36;;;;;;;1.83;0.68;;;16.50;56.60;;;;;;5093388;28;20032;-76
2021/05/14 11:16:39;;;;;;;0.85;0.60;;;16.40;56.50;;;;;;5092313;28;20103;-76
2021/05/14 11:19:26;;;;;;;1.40;0.50;;;16.10;56.60;;;;;;5075094;28;20414;-76
2021/05/14 11:21:59;;;;;;;2.88;0.93;;;16.00;56.30;;;;;;5075290;28;20024;-76
2021/05/14 11:24:50;;;;;;;1.85;0.70;;;15.90;56.60;;;;;;5058245;28;20035;-76
2021/05/14 11:27:30;;;;;;;1.88;0.70;;;15.90;58.00;;;;;;5074859;28;20020;-73
2021/05/14 11:29:59;;;;;;;1.20;0.70;;;15.80;56.90;;;;;;5092985;28;20028;-73
2021/05/14 11:32:28;;;;;;;0.93;0.57;;;15.70;58.20;;;;;;5093164;28;20020;-73
2021/05/14 11:34:54;;;;;;;3.03;1.00;;;15.80;59.40;;;;;;5074863;28;20116;-73
2021/05/14 11:37:21;;;;;;;2.95;1.00;;;15.90;57.70;;;;;;5092799;28;20518;-73
2021/05/14 11:39:47;;;;;;;8.48;0.70;;;15.90;57.70;;;;;;5092938;28;20100;-73
2021/05/14 11:42:20;;;;;;;6.07;0.90;;;15.70;57.30;;;;;;5092905;28;20020;-73
2021/05/14 11:45:04;;;;;;;0.65;0.60;;;15.80;57.60;;;;;;5092849;28;20024;-74
2021/05/14 11:47:30;;;;;;;4.80;0.70;;;15.90;58.80;;;;;;5074683;28;20017;-73
2021/05/14 11:49:57;;;;;;;2.65;0.80;;;16.00;58.70;;;;;;5074917;28;20031;-73
2021/05/14 11:52:37;;;;;;;0.98;0.60;;;16.00;58.40;;;;;;5092781;28;20501;-73
2021/05/14 11:55:11;;;;;;;1.70;0.70;;;16.10;57.70;;;;;;5074895;28;20379;-76
2021/05/14 11:57:38;;;;;;;3.13;0.80;;;15.90;55.60;;;;;;5057658;28;20510;-76
2021/05/14 12:00:07;;;;;;;1.00;0.70;;;15.80;55.50;;;;;;5092540;28;20038;-75
2021/05/14 12:02:38;;;;;;;0.52;0.50;;;15.60;56.40;;;;;;5074565;28;20051;-76
2021/05/14 12:05:06;;;;;;;4.05;1.10;;;15.90;57.40;;;;;;5074205;28;20064;-76
2021/05/14 12:07:31;;;;;;;0.57;0.57;;;16.20;57.30;;;;;;5092361;28;20028;-76
2021/05/14 12:10:06;;;;;;;3.40;0.57;;;16.30;55.90;;;;;;5092712;28;20024;-76
2021/05/14 12:12:32;;;;;;;2.97;0.77;;;16.60;56.60;;;;;;5074468;28;20020;-76
2021/05/14 12:15:11;;;;;;;1.88;1.02;;;16.70;56.00;;;;;;5092387;28;20164;-76
2021/05/14 12:17:38;;;;;;;4.30;1.00;;;16.80;55.90;;;;;;5092230;28;20082;-76
2021/05/14 12:20:16;;;;;;;0.60;0.60;;;16.80;56.60;;;;;;5074162;28;20042;-76
2021/05/14 12:22:45;;;;;;;1.92;0.70;;;16.90;56.70;;;;;;5074153;28;20391;-76
2021/05/14 12:25:11;;;;;;;1.75;0.73;;;16.70;56.30;;;;;;5074226;28;20395;-76
2021/05/14 12:27:37;;;;;;;2.97;0.77;;;16.60;56.00;;;;;;5091783;28;20020;-76
2021/05/14 12:30:04;;;;;;;3.17;0.80;;;16.40;57.90;;;;;;5092249;28;20036;-76
2021/05/14 12:32:30;;;;;;;3.13;0.63;;;16.50;57.30;;;;;;5092100;28;20024;-76
2021/05/14 12:34:55;;;;;;;1.23;0.70;;;16.50;57.20;;;;;;5092232;28;20540;-76
2021/05/14 12:37:21;;;;;;;1.42;0.60;;;16.40;56.90;;;;;;5057737;28;20032;-76
2021/05/14 12:39:48;;;;;;;2.28;0.60;;;16.40;57.40;;;;;;5057417;28;20020;-76
2021/05/14 12:42:24;;;;;;;8.75;2.03;;;16.70;57.20;;;;;;5074569;28;20016;-76
2021/05/14 12:44:52;;;;;;;7.35;1.15;;;16.70;57.10;;;;;;5091966;28;20113;-76
2021/05/14 12:47:21;;;;;;;4.50;0.77;;;17.00;57.10;;;;;;5074276;28;20107;-76
2021/05/14 12:49:51;;;;;;;2.13;0.40;;;17.10;56.20;;;;;;5074089;28;20036;-76
2021/05/14 12:52:29;;;;;;;3.10;0.60;;;16.90;57.50;;;;;;5092103;28;20112;-76
2021/05/14 12:55:04;;;;;;;1.63;0.63;;;16.60;56.80;;;;;;5057260;28;20052;-76
2021/05/14 12:57:38;;;;;;;3.53;1.13;;;16.70;57.40;;;;;;5091791;28;20035;-76